Time;durP1;ratioP1;P1;durP2;ratioP2;P2;SDS_P1;SDS_P2;PMS_P1;PMS_P2;Temp;Humidity;BMP_temperature;BMP_pressure;BME280_temperature;BME280_humidity;BME280_pressure;Samples;Min_cycle;Max_cycle;Signal;HPM_P1;HPM_P2
2022/04/06 05:02:45;;;;;;;6.90;4.05;;;9.80;99.90;;;;;;846790;23;21454;31
2022/04/06 05:05:13;;;;;;;6.50;4.53;;;9.80;99.90;;;;;;4879214;29;20093;-84
2022/04/06 05:07:40;;;;;;;6.38;4.15;;;9.80;99.90;;;;;;4883525;29;20056;-85
2022/04/06 05:10:08;;;;;;;8.25;4.45;;;9.80;99.90;;;;;;4884145;29;20131;-86
2022/04/06 05:12:36;;;;;;;5.88;4.28;;;9.90;99.90;;;;;;4883681;29;20056;-86
2022/04/06 05:15:06;;;;;;;6.03;4.10;;;9.80;99.90;;;;;;4883703;29;20438;-86
2022/04/06 05:17:34;;;;;;;6.40;4.40;;;9.80;99.90;;;;;;4883730;29;20505;-86
2022/04/06 05:20:02;;;;;;;6.18;3.92;;;9.80;99.90;;;;;;4883878;29;20049;-85
2022/04/06 05:22:29;;;;;;;6.88;4.18;;;9.90;99.90;;;;;;4898199;29;20451;-86
2022/04/06 05:24:56;;;;;;;5.95;4.13;;;9.90;99.90;;;;;;4883995;29;20442;-88
2022/04/06 05:27:23;;;;;;;6.93;3.90;;;9.90;99.90;;;;;;4883781;29;20056;-86
2022/04/06 05:29:50;;;;;;;6.10;3.85;;;9.90;99.90;;;;;;4883520;29;20056;-84
2022/04/06 05:32:18;;;;;;;7.00;3.75;;;9.90;99.90;;;;;;4885088;29;20064;-89
2022/04/06 05:34:45;;;;;;;6.75;4.18;;;9.90;99.90;;;;;;4884696;29;20290;-90
2022/04/06 05:37:13;;;;;;;5.05;3.38;;;9.90;99.90;;;;;;4867780;29;20061;-88
2022/04/06 05:39:40;;;;;;;4.93;3.33;;;9.90;99.90;;;;;;4867743;29;20082;-87
2022/04/06 05:42:09;;;;;;;7.35;4.32;;;9.90;99.90;;;;;;4883670;29;20140;-85
2022/04/06 05:44:36;;;;;;;5.47;3.72;;;9.90;99.90;;;;;;4883088;29;20053;-85
2022/04/06 05:47:03;;;;;;;7.70;3.58;;;10.00;99.90;;;;;;4882837;29;20100;-86
2022/04/06 05:49:30;;;;;;;5.28;3.53;;;10.00;99.90;;;;;;4883025;29;20133;-85
2022/04/06 05:51:57;;;;;;;5.45;3.45;;;10.00;99.90;;;;;;4883061;29;20052;-90
2022/04/06 05:54:26;;;;;;;5.85;3.85;;;10.00;99.90;;;;;;4875702;29;20055;-89
2022/04/06 05:56:53;;;;;;;6.53;3.90;;;10.00;99.90;;;;;;4883408;29;20049;-88
2022/04/06 05:59:20;;;;;;;4.70;3.20;;;10.10;99.90;;;;;;4882948;29;20075;-86
2022/04/06 06:01:47;;;;;;;4.90;3.17;;;10.10;99.90;;;;;;4897325;29;20487;-87
2022/04/06 06:04:14;;;;;;;4.90;3.05;;;10.10;99.90;;;;;;4882426;29;20061;-85
2022/04/06 06:06:41;;;;;;;5.03;3.35;;;10.10;99.90;;;;;;4882830;29;20055;-90
2022/04/06 06:09:09;;;;;;;4.55;3.03;;;10.10;99.90;;;;;;4866097;29;20052;-85
2022/04/06 06:11:37;;;;;;;5.35;2.90;;;10.10;99.90;;;;;;4887801;29;20084;-86
2022/04/06 06:14:04;;;;;;;6.15;3.05;;;10.10;99.90;;;;;;4888249;29;20113;-87
2022/04/06 06:16:31;;;;;;;4.63;2.70;;;10.20;99.90;;;;;;4886800;29;20418;-87
2022/04/06 06:18:58;;;;;;;5.45;2.50;;;10.10;99.90;;;;;;4883388;29;20048;-86
2022/04/06 06:21:27;;;;;;;4.25;2.33;;;10.20;99.90;;;;;;4882363;29;20139;-87
2022/04/06 06:23:54;;;;;;;3.40;2.08;;;10.20;99.90;;;;;;4882648;29;20140;-87
2022/04/06 06:26:21;;;;;;;4.18;2.28;;;10.20;99.90;;;;;;4866256;29;20144;-86
2022/04/06 06:28:50;;;;;;;3.53;1.95;;;10.30;99.90;;;;;;4882844;29;20057;-88
2022/04/06 06:31:17;;;;;;;3.83;2.20;;;10.30;99.90;;;;;;4881828;29;20452;-86
2022/04/06 06:33:44;;;;;;;3.70;1.92;;;10.30;99.90;;;;;;4882142;29;20491;-86
2022/04/06 06:36:13;;;;;;;4.63;1.70;;;10.40;99.90;;;;;;4882122;29;20049;-86
2022/04/06 06:38:40;;;;;;;4.65;1.85;;;10.40;99.90;;;;;;4882128;29;20109;-87
2022/04/06 06:41:07;;;;;;;4.10;2.28;;;10.40;99.90;;;;;;4884757;29;20061;-86
2022/04/06 06:43:34;;;;;;;5.18;2.83;;;10.50;99.90;;;;;;4883044;29;20091;-87
2022/04/06 06:46:03;;;;;;;6.93;3.90;;;10.50;99.90;;;;;;4884289;29;20075;-87
2022/04/06 06:48:30;;;;;;;6.97;3.42;;;10.50;99.90;;;;;;4883814;29;20784;-87
2022/04/06 06:50:57;;;;;;;4.60;2.13;;;10.60;99.90;;;;;;4883873;29;20410;-86
2022/04/06 06:53:24;;;;;;;3.53;1.80;;;10.60;99.90;;;;;;4883397;29;20081;-86
2022/04/06 06:55:51;;;;;;;3.85;1.80;;;10.50;99.90;;;;;;4883029;29;20458;-87
2022/04/06 06:58:18;;;;;;;3.17;1.65;;;10.50;99.90;;;;;;4882296;29;20052;-85
2022/04/06 07:00:45;;;;;;;3.80;1.70;;;10.50;99.90;;;;;;4881869;29;20048;-87
2022/04/06 07:03:14;;;;;;;4.18;1.70;;;10.50;99.90;;;;;;4866415;29;20071;-85
2022/04/06 07:05:41;;;;;;;4.07;1.80;;;10.60;99.90;;;;;;4882941;29;20051;-86
2022/04/06 07:08:09;;;;;;;4.30;2.03;;;10.60;99.90;;;;;;4882221;29;20139;-86
2022/04/06 07:10:36;;;;;;;3.63;1.95;;;10.60;99.90;;;;;;4882620;29;20048;-86
2022/04/06 07:13:04;;;;;;;4.03;2.20;;;10.50;99.90;;;;;;4882753;29;20140;-88
2022/04/06 07:15:31;;;;;;;4.28;2.22;;;10.60;99.90;;;;;;4883288;29;20282;-86
2022/04/06 07:18:00;;;;;;;5.05;2.28;;;10.60;99.90;;;;;;4882070;29;20053;-86
2022/04/06 07:20:29;;;;;;;3.78;2.05;;;10.60;99.90;;;;;;4883270;29;20049;-87
2022/04/06 07:22:56;;;;;;;3.55;2.03;;;10.60;99.90;;;;;;4882531;29;20056;-86
2022/04/06 07:25:23;;;;;;;3.97;1.98;;;10.60;99.90;;;;;;4858121;29;20053;-85
2022/04/06 07:27:51;;;;;;;5.97;2.03;;;10.60;99.90;;;;;;4881587;29;20063;-87
2022/04/06 07:30:18;;;;;;;3.35;1.80;;;10.60;99.90;;;;;;4881083;29;20481;-86
2022/04/06 07:32:45;;;;;;;4.03;1.90;;;10.70;99.90;;;;;;4882004;29;20411;-86
2022/04/06 07:35:12;;;;;;;3.65;1.80;;;10.70;99.90;;;;;;4881760;29;20055;-87
2022/04/06 07:37:42;;;;;;;4.38;1.80;;;10.70;99.90;;;;;;4865288;29;20057;-86
2022/04/06 07:40:11;;;;;;;4.28;1.85;;;10.80;99.90;;;;;;4881417;29;20059;-85
2022/04/06 07:42:40;;;;;;;4.40;1.77;;;10.80;99.90;;;;;;4882211;29;20055;-87
2022/04/06 07:45:09;;;;;;;4.68;1.90;;;10.80;99.90;;;;;;4880901;29;20056;-87
2022/04/06 07:47:38;;;;;;;3.85;2.00;;;10.90;99.90;;;;;;4880582;29;20055;-87
2022/04/06 07:50:12;;;;;;;3.53;1.63;;;10.90;99.90;;;;;;4876872;29;20049;-86
2022/04/06 07:52:43;;;;;;;2.85;1.40;;;11.00;99.90;;;;;;4860180;29;20517;-87
2022/04/06 07:55:11;;;;;;;3.97;1.80;;;11.00;99.90;;;;;;4863967;29;20053;-87
2022/04/06 07:57:39;;;;;;;3.70;1.30;;;11.00;99.90;;;;;;4878428;29;20060;-86
2022/04/06 08:00:09;;;;;;;2.92;1.40;;;11.00;99.90;;;;;;4878108;29;20052;-85
2022/04/06 08:02:36;;;;;;;2.80;1.40;;;11.00;99.90;;;;;;4878158;29;20057;-85
2022/04/06 08:05:05;;;;;;;3.22;1.25;;;11.00;99.90;;;;;;4877532;29;20085;-87
2022/04/06 08:07:33;;;;;;;3.42;1.67;;;11.10;99.90;;;;;;4877156;29;20057;-84
2022/04/06 08:10:01;;;;;;;3.15;1.45;;;11.00;99.90;;;;;;4881465;29;20168;-86
2022/04/06 08:12:28;;;;;;;3.88;1.50;;;11.10;99.90;;;;;;4878719;29;20060;-86
2022/04/06 08:14:55;;;;;;;3.78;1.45;;;11.00;99.90;;;;;;4879108;29;20503;-86
2022/04/06 08:17:25;;;;;;;4.30;1.60;;;11.00;99.90;;;;;;4877682;29;20061;-87
2022/04/06 08:19:52;;;;;;;4.40;1.90;;;11.10;99.90;;;;;;4878237;29;20061;-86
2022/04/06 08:22:19;;;;;;;3.70;1.20;;;11.10;99.90;;;;;;4861690;29;20057;-86
2022/04/06 08:24:46;;;;;;;4.25;1.25;;;11.20;99.90;;;;;;4877723;29;20057;-86
2022/04/06 08:27:15;;;;;;;3.17;1.30;;;11.20;99.90;;;;;;4877449;29;20422;-86
2022/04/06 08:29:42;;;;;;;3.60;1.50;;;11.10;99.90;;;;;;4877387;29;20055;-84
2022/04/06 08:32:09;;;;;;;4.07;1.13;;;11.20;99.90;;;;;;4877907;29;20493;-87
2022/04/06 08:34:36;;;;;;;2.95;1.20;;;11.20;99.90;;;;;;4878653;29;20057;-88
2022/04/06 08:37:04;;;;;;;3.13;1.13;;;11.10;99.90;;;;;;4877821;29;20502;-89
2022/04/06 08:39:31;;;;;;;2.42;1.10;;;11.20;99.90;;;;;;4870844;29;20063;-89
2022/04/06 08:41:59;;;;;;;2.38;1.00;;;11.20;99.90;;;;;;4877347;29;20142;-89
2022/04/06 08:44:27;;;;;;;2.25;0.90;;;11.20;99.90;;;;;;4878829;29;20391;-90
2022/04/06 08:47:02;;;;;;;2.58;1.13;;;11.30;99.90;;;;;;4873936;29;20056;-89
2022/04/06 08:49:29;;;;;;;2.45;1.00;;;11.40;99.90;;;;;;4877753;29;20056;-89
2022/04/06 08:51:58;;;;;;;2.90;1.10;;;11.30;99.90;;;;;;4878137;29;20402;-89
2022/04/06 08:54:26;;;;;;;2.90;1.13;;;11.40;99.90;;;;;;4862289;29;20092;-88
2022/04/06 08:56:54;;;;;;;2.88;1.30;;;11.50;99.90;;;;;;4878088;29;20414;-89
2022/04/06 08:59:22;;;;;;;2.58;1.10;;;11.50;99.90;;;;;;4878216;29;20430;-90
2022/04/06 09:01:50;;;;;;;2.63;1.00;;;11.50;99.90;;;;;;4846338;29;20506;-88
2022/04/06 09:04:20;;;;;;;2.75;1.17;;;11.60;99.90;;;;;;4877522;29;20068;-89
2022/04/06 09:06:48;;;;;;;2.13;0.90;;;11.70;99.90;;;;;;4880883;29;20137;-90
2022/04/06 09:09:22;;;;;;;4.72;1.00;;;11.70;99.90;;;;;;4894940;29;20049;-90
2022/04/06 09:11:50;;;;;;;4.03;0.98;;;11.80;99.90;;;;;;4911077;29;20490;-89
2022/04/06 09:14:17;;;;;;;2.85;0.93;;;11.70;99.90;;;;;;4884398;29;20553;-90
2022/04/06 09:16:44;;;;;;;1.70;0.88;;;11.80;99.90;;;;;;4896738;29;20064;-90
2022/04/06 09:19:16;;;;;;;2.65;0.90;;;11.80;99.90;;;;;;4886208;29;20194;-86
2022/04/06 09:21:46;;;;;;;1.60;0.70;;;11.80;99.90;;;;;;4879505;29;20053;-89
2022/04/06 09:24:17;;;;;;;2.17;0.80;;;11.80;99.90;;;;;;4896498;29;20052;-86
2022/04/06 09:26:44;;;;;;;2.80;0.80;;;12.00;99.90;;;;;;4911277;29;20135;-88
2022/04/06 09:29:21;;;;;;;2.05;0.70;;;12.00;99.00;;;;;;4873134;29;20064;-87
2022/04/06 09:31:49;;;;;;;1.67;0.70;;;12.00;98.40;;;;;;4877488;29;20053;-81
2022/04/06 09:34:21;;;;;;;2.38;0.70;;;12.40;98.50;;;;;;4879497;29;20109;-84
2022/04/06 09:36:51;;;;;;;3.90;0.60;;;12.70;97.40;;;;;;4881089;29;20121;-82
2022/04/06 09:39:18;;;;;;;1.70;0.60;;;12.70;97.00;;;;;;4894973;29;20057;-87
2022/04/06 09:42:00;;;;;;;1.95;0.70;;;12.60;96.90;;;;;;4907612;29;20125;-86
2022/04/06 09:50:22;;;;;;;1.27;0.52;;;12.70;96.30;;;;;;4902533;29;20064;-86
2022/04/06 09:52:51;;;;;;;1.08;0.50;;;13.00;96.20;;;;;;4907373;29;20072;-88
2022/04/06 09:55:20;;;;;;;1.15;0.40;;;13.10;95.50;;;;;;4910264;29;20068;-87
2022/04/06 09:57:50;;;;;;;1.10;0.50;;;13.00;95.80;;;;;;4910109;29;20058;-87
2022/04/06 10:00:19;;;;;;;1.17;0.45;;;13.00;95.80;;;;;;4898645;29;20100;-87
2022/04/06 10:02:55;;;;;;;2.10;0.80;;;12.90;96.20;;;;;;4900223;29;20482;-87
2022/04/06 10:05:25;;;;;;;1.30;0.50;;;13.10;96.00;;;;;;4900044;29;20418;-88
2022/04/06 10:07:55;;;;;;;1.83;0.60;;;13.00;95.20;;;;;;4881542;29;20407;-88
2022/04/06 10:10:25;;;;;;;1.15;0.50;;;13.00;95.60;;;;;;4899961;29;20435;-87
2022/04/06 10:12:54;;;;;;;1.35;0.50;;;13.00;95.50;;;;;;4883761;29;20398;-85
2022/04/06 10:15:21;;;;;;;2.35;0.60;;;12.90;96.00;;;;;;4898851;29;20204;-87
2022/04/06 10:17:48;;;;;;;1.98;0.70;;;13.10;96.40;;;;;;4899614;29;20087;-87
2022/04/06 10:20:37;;;;;;;1.58;0.70;;;13.30;95.90;;;;;;4882692;29;20060;-87
2022/04/06 10:23:17;;;;;;;1.52;0.43;;;13.20;95.70;;;;;;4899566;29;20049;-87
2022/04/06 10:26:01;;;;;;;1.00;0.50;;;13.40;95.30;;;;;;4882463;29;20063;-85
2022/04/06 10:28:33;;;;;;;2.03;0.50;;;13.60;94.60;;;;;;4899411;29;20513;-87
2022/04/06 10:31:19;;;;;;;4.28;1.50;;;13.70;94.10;;;;;;4882718;29;20455;-87
2022/04/06 10:33:46;;;;;;;1.20;0.50;;;13.70;93.70;;;;;;4898266;29;20487;-86
2022/04/06 10:36:21;;;;;;;2.40;0.90;;;13.50;93.30;;;;;;4881246;29;20144;-86
2022/04/06 10:39:13;;;;;;;1.88;0.60;;;13.90;93.80;;;;;;4880482;29;20562;-86
2022/04/06 10:42:01;;;;;;;1.33;0.55;;;13.70;93.00;;;;;;4881837;29;20140;-87
2022/04/06 10:44:38;;;;;;;1.25;0.50;;;13.50;93.20;;;;;;4880449;29;20096;-86
2022/04/06 10:47:08;;;;;;;1.13;0.45;;;13.90;93.40;;;;;;4880186;29;20060;-87
2022/04/06 10:49:35;;;;;;;1.15;0.50;;;14.00;92.80;;;;;;4879699;29;20490;-86
2022/04/06 10:52:26;;;;;;;1.55;0.40;;;13.80;93.70;;;;;;4879742;29;20055;-85
2022/04/06 10:54:54;;;;;;;2.65;0.70;;;13.70;93.70;;;;;;4879907;29;20505;-85
2022/04/06 10:57:22;;;;;;;1.23;0.50;;;13.90;94.00;;;;;;4879924;29;20163;-86
2022/04/06 11:00:17;;;;;;;1.50;0.60;;;13.70;93.20;;;;;;4880806;29;20415;-85
2022/04/06 11:02:50;;;;;;;1.23;0.55;;;13.80;93.50;;;;;;4878653;29;20085;-83
2022/04/06 11:05:46;;;;;;;1.83;0.52;;;13.90;92.50;;;;;;4862325;29;20132;-83
2022/04/06 11:12:10;;;;;;;1.85;0.50;;;14.00;91.20;;;;;;4822288;29;20054;-86
2022/04/06 11:14:37;;;;;;;1.33;0.40;;;13.70;91.90;;;;;;4854420;29;20053;-85
2022/04/06 11:17:37;;;;;;;1.38;0.60;;;13.80;92.10;;;;;;4879606;29;20060;-87
2022/04/06 11:20:10;;;;;;;1.02;0.50;;;13.80;91.40;;;;;;4879301;29;20072;-86
2022/04/06 11:22:40;;;;;;;1.90;0.60;;;13.90;91.80;;;;;;4880305;29;20057;-85
2022/04/06 11:25:14;;;;;;;2.13;0.60;;;14.00;90.80;;;;;;4894990;29;20072;-85
2022/04/06 11:27:43;;;;;;;1.20;0.53;;;14.20;91.60;;;;;;4888054;29;20056;-86
2022/04/06 11:30:13;;;;;;;2.80;0.50;;;14.30;90.80;;;;;;4896130;29;20301;-85
2022/04/06 11:32:43;;;;;;;1.45;0.52;;;14.30;89.30;;;;;;4898879;29;20063;-86
2022/04/06 11:35:11;;;;;;;0.73;0.40;;;14.30;90.20;;;;;;4911851;29;20048;-86
2022/04/06 11:37:43;;;;;;;1.60;0.43;;;14.50;90.40;;;;;;4896564;29;20064;-86
2022/04/06 11:40:12;;;;;;;1.15;0.50;;;14.60;87.30;;;;;;4897533;29;20063;-84
2022/04/06 11:42:40;;;;;;;0.88;0.30;;;14.70;88.50;;;;;;4897597;29;20059;-85
2022/04/06 11:45:09;;;;;;;1.15;0.47;;;14.80;88.40;;;;;;4897237;29;20052;-84
2022/04/06 11:47:38;;;;;;;1.52;0.40;;;15.00;86.60;;;;;;4897858;29;20573;-85
2022/04/06 11:50:11;;;;;;;1.40;0.60;;;15.00;85.20;;;;;;4897036;29;20048;-86
2022/04/06 11:52:40;;;;;;;1.20;0.50;;;14.90;85.80;;;;;;4897542;29;20085;-86
2022/04/06 11:55:08;;;;;;;1.40;0.40;;;14.70;86.00;;;;;;4879546;29;20057;-84
2022/04/06 11:57:40;;;;;;;1.23;0.50;;;15.00;86.80;;;;;;4898023;29;20075;-85
2022/04/06 12:00:10;;;;;;;2.17;0.40;;;15.00;86.90;;;;;;4897064;29;20485;-84
2022/04/06 12:02:55;;;;;;;0.85;0.40;;;15.00;87.20;;;;;;4881475;29;20062;-84
2022/04/06 12:05:24;;;;;;;1.48;0.45;;;15.10;84.00;;;;;;4898089;29;20063;-86
2022/04/06 12:08:08;;;;;;;1.17;0.43;;;15.10;85.90;;;;;;4896147;29;20135;-86
2022/04/06 12:10:36;;;;;;;1.85;0.73;;;15.40;85.10;;;;;;4897772;29;20049;-87
2022/04/06 12:13:06;;;;;;;1.90;0.50;;;15.40;83.90;;;;;;4897577;29;20135;-85
2022/04/06 12:15:33;;;;;;;0.73;0.40;;;15.40;79.60;;;;;;4897648;29;20104;-84
2022/04/06 12:18:00;;;;;;;1.00;0.43;;;15.30;77.10;;;;;;4898371;29;20061;-87
2022/04/06 12:20:28;;;;;;;2.03;0.60;;;15.50;77.20;;;;;;4897681;29;20135;-86
2022/04/06 12:23:05;;;;;;;1.75;0.50;;;15.40;77.40;;;;;;4897355;29;20064;-85
2022/04/06 12:25:34;;;;;;;1.23;0.50;;;15.30;75.00;;;;;;4897495;29;20056;-86
2022/04/06 12:28:18;;;;;;;1.08;0.50;;;15.30;76.60;;;;;;4897108;29;20131;-85
2022/04/06 12:30:55;;;;;;;1.25;0.40;;;15.50;76.10;;;;;;4881163;29;20057;-85
2022/04/06 12:33:45;;;;;;;1.10;0.50;;;15.70;72.40;;;;;;4897292;29;20057;-84
2022/04/06 12:36:18;;;;;;;1.05;0.50;;;15.60;72.30;;;;;;4896829;29;20044;-86
2022/04/06 12:38:59;;;;;;;1.52;0.38;;;15.90;71.80;;;;;;4897125;29;20056;-85
2022/04/06 12:41:28;;;;;;;1.02;0.30;;;15.80;72.40;;;;;;4897398;29;20094;-85
2022/04/06 12:43:58;;;;;;;1.40;0.47;;;15.90;73.30;;;;;;4895478;29;20049;-85
2022/04/06 12:46:41;;;;;;;1.42;0.50;;;16.10;73.20;;;;;;4889456;29;20053;-86
2022/04/06 12:49:24;;;;;;;1.05;0.40;;;16.10;75.60;;;;;;4895280;29;20052;-86
2022/04/06 12:52:07;;;;;;;1.42;0.30;;;16.00;73.50;;;;;;4897636;29;20438;-85
2022/04/06 12:54:37;;;;;;;1.38;0.50;;;16.20;73.00;;;;;;4880920;29;20080;-85
2022/04/06 12:57:10;;;;;;;1.50;0.55;;;16.30;71.90;;;;;;4896375;29;20076;-86
2022/04/06 12:59:45;;;;;;;1.80;0.50;;;16.70;71.00;;;;;;4896827;29;20060;-84
2022/04/06 13:02:24;;;;;;;1.50;0.63;;;16.70;71.00;;;;;;4897087;29;20057;-85
2022/04/06 13:04:53;;;;;;;1.73;0.70;;;16.70;72.50;;;;;;4895261;29;20057;-84
2022/04/06 13:07:21;;;;;;;2.15;0.60;;;16.70;73.60;;;;;;4895751;29;20066;-85
2022/04/06 13:09:50;;;;;;;1.13;0.50;;;16.40;73.00;;;;;;4896638;29;20068;-85
2022/04/06 13:12:18;;;;;;;1.88;0.70;;;16.30;72.90;;;;;;4896713;29;20075;-84
2022/04/06 13:14:47;;;;;;;1.85;0.50;;;16.20;74.00;;;;;;4877554;29;20053;-86
2022/04/06 13:17:14;;;;;;;2.08;0.70;;;16.20;74.10;;;;;;4896887;29;20059;-86
2022/04/06 13:19:41;;;;;;;1.48;0.57;;;16.40;74.10;;;;;;4897105;29;20542;-86
2022/04/06 13:22:09;;;;;;;1.35;0.50;;;16.80;73.40;;;;;;4911702;29;20052;-86
2022/04/06 13:24:36;;;;;;;1.23;0.43;;;17.10;71.70;;;;;;4896469;29;20059;-86
2022/04/06 13:27:04;;;;;;;1.75;0.40;;;17.30;69.20;;;;;;4889348;29;20059;-88
2022/04/06 13:29:32;;;;;;;1.00;0.40;;;16.90;69.50;;;;;;4867260;29;20100;-86
2022/04/06 13:32:00;;;;;;;1.58;0.57;;;16.70;70.40;;;;;;4881163;29;20063;-87
2022/04/06 13:34:28;;;;;;;0.85;0.40;;;17.50;69.50;;;;;;4881993;29;20104;-85
2022/04/06 13:36:55;;;;;;;1.52;0.50;;;17.00;69.10;;;;;;4881392;29;20383;-85
2022/04/06 13:39:23;;;;;;;0.77;0.38;;;16.70;69.70;;;;;;4864673;29;20067;-84
2022/04/06 13:41:55;;;;;;;1.02;0.52;;;17.20;69.00;;;;;;4880553;29;20048;-87
2022/04/06 13:44:24;;;;;;;1.55;0.47;;;16.80;69.20;;;;;;4881814;29;20499;-86
2022/04/06 13:46:54;;;;;;;1.17;0.50;;;16.80;70.20;;;;;;4881338;29;20526;-86
2022/04/06 13:49:23;;;;;;;1.38;0.50;;;16.60;70.20;;;;;;4881877;29;20091;-85
2022/04/06 13:51:51;;;;;;;2.47;0.57;;;16.80;70.50;;;;;;4881283;29;20049;-85
2022/04/06 13:54:18;;;;;;;1.80;0.50;;;16.70;70.70;;;;;;4864741;29;20076;-85
2022/04/06 13:56:46;;;;;;;1.48;0.50;;;16.90;68.00;;;;;;4881219;29;20506;-84
2022/04/06 13:59:14;;;;;;;2.13;0.70;;;16.80;70.10;;;;;;4888617;29;20049;-86
2022/04/06 14:01:42;;;;;;;2.30;0.57;;;17.20;69.60;;;;;;4876904;29;20068;-86
2022/04/06 14:04:11;;;;;;;1.05;0.40;;;17.10;67.20;;;;;;4893813;29;20064;-87
2022/04/06 14:06:40;;;;;;;5.10;0.60;;;17.00;68.40;;;;;;4897728;29;20057;-85
2022/04/06 14:09:09;;;;;;;1.65;0.52;;;16.70;68.30;;;;;;4879540;29;20234;-85
2022/04/06 14:11:36;;;;;;;1.55;0.52;;;16.40;69.80;;;;;;4879970;29;20109;-83
2022/04/06 14:14:09;;;;;;;1.13;0.50;;;16.40;69.20;;;;;;4880857;29;20053;-84
2022/04/06 14:16:36;;;;;;;1.90;0.60;;;16.50;69.50;;;;;;4884041;29;20060;-86
2022/04/06 14:19:04;;;;;;;2.05;0.70;;;16.30;69.70;;;;;;4880609;29;20140;-84
2022/04/06 14:21:34;;;;;;;3.15;1.00;;;16.20;70.80;;;;;;4880291;29;20056;-87
2022/04/06 14:24:03;;;;;;;3.33;1.20;;;16.10;72.70;;;;;;4880007;29;20057;-86
2022/04/06 14:26:31;;;;;;;2.13;0.70;;;16.30;72.60;;;;;;4879768;29;20056;-85
2022/04/06 14:28:58;;;;;;;4.20;0.90;;;16.20;72.00;;;;;;4863468;29;20059;-86
2022/04/06 14:31:26;;;;;;;2.45;0.85;;;17.10;70.50;;;;;;4879961;29;20134;-85
2022/04/06 14:33:53;;;;;;;1.90;0.70;;;17.30;69.10;;;;;;4880894;29;20068;-85
2022/04/06 14:36:21;;;;;;;1.27;0.50;;;17.70;68.00;;;;;;4880463;29;20056;-86
2022/04/06 14:38:48;;;;;;;2.75;1.00;;;17.10;69.90;;;;;;4879515;29;20068;-86
2022/04/06 14:41:16;;;;;;;1.55;0.65;;;16.60;70.30;;;;;;4879830;29;20053;-86
2022/04/06 14:43:44;;;;;;;1.25;0.47;;;17.00;69.60;;;;;;4879704;29;20058;-84
2022/04/06 14:46:11;;;;;;;1.35;0.50;;;17.30;68.60;;;;;;4880537;29;20055;-86
2022/04/06 14:48:38;;;;;;;1.17;0.40;;;16.80;71.10;;;;;;4880787;29;20065;-83
2022/04/06 14:51:05;;;;;;;2.00;0.40;;;16.80;71.70;;;;;;4879948;29;20059;-84
2022/04/06 14:53:33;;;;;;;1.73;0.57;;;17.10;70.10;;;;;;4879698;29;20049;-86
2022/04/06 14:56:00;;;;;;;1.67;0.60;;;16.40;70.90;;;;;;4879577;29;20132;-83
2022/04/06 14:58:28;;;;;;;1.77;0.60;;;16.40;71.50;;;;;;4880076;29;20117;-84
2022/04/06 15:00:56;;;;;;;2.50;0.50;;;16.90;70.40;;;;;;4880318;29;20049;-85
2022/04/06 15:03:23;;;;;;;2.10;0.73;;;16.50;72.20;;;;;;4880635;29;20366;-85
2022/04/06 15:05:50;;;;;;;1.98;0.57;;;16.60;72.20;;;;;;4892791;29;20140;-85
2022/04/06 15:08:17;;;;;;;1.10;0.43;;;16.50;73.10;;;;;;4891754;29;20084;-88
2022/04/06 15:10:45;;;;;;;1.70;0.45;;;16.60;71.50;;;;;;4882104;29;20053;-88
2022/04/06 15:13:13;;;;;;;1.63;0.60;;;16.90;73.00;;;;;;4878162;29;20049;-90
2022/04/06 15:15:41;;;;;;;1.13;0.60;;;16.60;72.50;;;;;;4873269;29;20079;-89
2022/04/06 15:18:09;;;;;;;1.70;0.70;;;16.20;74.20;;;;;;4883477;29;20104;-87
2022/04/06 15:20:37;;;;;;;1.70;0.60;;;16.10;75.30;;;;;;4888149;29;20072;-87
2022/04/06 15:23:06;;;;;;;1.88;0.70;;;16.10;76.70;;;;;;4882332;29;20049;-88
2022/04/06 15:25:35;;;;;;;1.45;0.60;;;16.10;75.30;;;;;;4891915;29;20059;-87
2022/04/06 15:28:02;;;;;;;1.48;0.60;;;16.10;75.10;;;;;;4895355;29;20058;-89
2022/04/06 15:30:30;;;;;;;2.70;0.70;;;16.10;76.00;;;;;;4892253;29;20076;-85
2022/04/06 15:33:00;;;;;;;1.35;0.52;;;16.00;76.10;;;;;;4890333;29;20067;-84
2022/04/06 15:38:11;;;;;;;1.60;0.70;;;15.70;77.80;;;;;;4862379;29;20618;-86
2022/04/06 15:40:39;;;;;;;1.38;0.75;;;15.70;77.00;;;;;;4879007;29;20423;-85
2022/04/06 15:43:07;;;;;;;1.83;0.70;;;15.80;77.30;;;;;;4884705;29;20467;-86
2022/04/06 15:45:34;;;;;;;2.42;0.60;;;15.70;77.20;;;;;;4889817;29;20056;-85
2022/04/06 15:48:03;;;;;;;1.90;0.70;;;15.70;77.40;;;;;;4878592;29;20056;-85
2022/04/06 15:50:31;;;;;;;2.35;0.75;;;15.70;78.60;;;;;;4873220;29;20052;-87
2022/04/06 15:52:59;;;;;;;1.73;0.65;;;15.60;79.10;;;;;;4893138;29;20411;-88
2022/04/06 15:55:26;;;;;;;1.95;0.70;;;15.40;79.90;;;;;;4894050;29;20392;-87
2022/04/06 15:57:56;;;;;;;2.80;0.73;;;15.20;81.10;;;;;;4883045;29;20079;-84
2022/04/06 16:00:24;;;;;;;1.63;0.60;;;15.30;81.80;;;;;;4889160;29;20060;-85
2022/04/06 16:02:51;;;;;;;1.48;0.70;;;15.20;82.70;;;;;;4877439;29;20506;-85
2022/04/06 16:05:19;;;;;;;1.40;0.60;;;15.20;82.70;;;;;;4879121;29;20115;-85
2022/04/06 16:07:46;;;;;;;1.90;0.75;;;15.10;82.70;;;;;;4877885;29;20594;-87
2022/04/06 16:10:14;;;;;;;1.80;0.80;;;15.20;83.30;;;;;;4896416;29;20053;-83
2022/04/06 16:12:41;;;;;;;2.30;0.80;;;15.20;83.20;;;;;;4886239;29;20056;-83
2022/04/06 16:15:10;;;;;;;1.77;0.65;;;15.20;84.30;;;;;;4875868;29;20112;-83
2022/04/06 16:17:38;;;;;;;1.35;0.63;;;15.10;83.90;;;;;;4872617;29;20524;-84
2022/04/06 16:20:06;;;;;;;1.33;0.60;;;15.10;84.50;;;;;;4882657;29;20057;-83
2022/04/06 16:22:35;;;;;;;2.15;0.57;;;15.10;85.00;;;;;;4875367;29;20523;-83
2022/04/06 16:25:02;;;;;;;2.15;0.70;;;14.90;85.10;;;;;;4874585;29;20467;-83
2022/04/06 16:27:29;;;;;;;1.70;0.70;;;14.70;86.50;;;;;;4873596;29;20212;-83
2022/04/06 16:29:56;;;;;;;2.30;0.60;;;14.60;87.80;;;;;;4866933;29;20048;-82
2022/04/06 16:32:24;;;;;;;2.05;0.60;;;14.60;88.20;;;;;;4871366;29;20450;-84
2022/04/06 16:34:52;;;;;;;2.13;0.60;;;14.50;89.70;;;;;;4883515;29;20060;-84
2022/04/06 16:37:19;;;;;;;2.00;0.80;;;14.50;90.40;;;;;;4884694;29;20061;-83
2022/04/06 16:39:48;;;;;;;1.52;0.80;;;14.50;90.60;;;;;;4890903;29;20152;-83
2022/04/06 16:42:16;;;;;;;2.20;0.90;;;14.40;91.00;;;;;;4892490;29;20061;-82
2022/04/06 16:44:44;;;;;;;1.92;0.80;;;14.30;91.00;;;;;;4882034;29;20546;-83
2022/04/06 16:47:13;;;;;;;2.45;0.80;;;14.50;91.10;;;;;;4888714;29;20522;-84
2022/04/06 16:52:41;;;;;;;1.13;0.55;;;14.30;91.10;;;;;;4891081;29;20136;-84
2022/04/06 16:55:12;;;;;;;1.80;0.70;;;14.30;91.30;;;;;;4884470;29;20059;-82
2022/04/06 16:57:40;;;;;;;1.40;0.65;;;14.20;91.10;;;;;;4893852;29;20056;-84
2022/04/06 17:00:11;;;;;;;1.20;0.60;;;14.10;91.40;;;;;;4895612;29;20116;-83
2022/04/06 17:02:41;;;;;;;1.63;0.50;;;14.00;92.10;;;;;;4891183;29;20127;-83
2022/04/06 17:05:09;;;;;;;1.58;0.68;;;13.90;92.50;;;;;;4896990;29;20053;-83
2022/04/06 17:07:36;;;;;;;1.90;0.82;;;14.10;92.90;;;;;;4878471;29;20051;-85
2022/04/06 17:10:04;;;;;;;1.70;0.70;;;14.00;94.10;;;;;;4891539;29;20467;-84
2022/04/06 17:12:33;;;;;;;1.38;0.60;;;13.90;95.20;;;;;;4876042;29;20056;-83
2022/04/06 17:15:00;;;;;;;2.15;0.70;;;13.80;94.70;;;;;;4879992;29;20143;-81
2022/04/06 17:17:28;;;;;;;1.25;0.57;;;13.70;95.20;;;;;;4886258;29;20066;-81
2022/04/06 17:19:55;;;;;;;1.42;0.70;;;13.70;95.30;;;;;;4888794;29;20483;-80
2022/04/06 17:22:22;;;;;;;1.98;0.60;;;13.70;95.60;;;;;;4890629;29;20459;-81
2022/04/06 17:24:50;;;;;;;2.15;0.68;;;13.60;95.90;;;;;;4895937;29;20057;-79
2022/04/06 17:27:17;;;;;;;2.35;0.90;;;13.50;96.40;;;;;;4898904;29;20167;-80
2022/04/06 17:29:45;;;;;;;1.95;0.90;;;13.50;96.80;;;;;;4895435;29;20143;-81
2022/04/06 17:32:13;;;;;;;3.08;1.40;;;13.40;97.70;;;;;;4885335;29;20055;-79
2022/04/06 17:34:40;;;;;;;2.30;0.90;;;13.30;97.80;;;;;;4892383;29;20052;-81
2022/04/06 17:37:08;;;;;;;2.53;1.10;;;13.30;98.10;;;;;;4894256;29;20052;-82
2022/04/06 17:39:36;;;;;;;2.22;1.00;;;13.20;98.40;;;;;;4897367;29;20455;-88
2022/04/06 17:42:03;;;;;;;2.05;1.00;;;13.20;98.60;;;;;;4879956;29;20105;-79
2022/04/06 17:44:31;;;;;;;2.95;1.00;;;13.20;98.90;;;;;;4884648;29;20376;-80
2022/04/06 17:46:59;;;;;;;1.80;0.90;;;13.20;99.10;;;;;;4884682;29;20576;-84
2022/04/06 17:49:27;;;;;;;2.90;1.02;;;13.10;99.30;;;;;;4898710;29;20140;-83
2022/04/06 17:51:56;;;;;;;3.45;1.08;;;13.00;99.50;;;;;;4857197;29;20183;-83
2022/04/06 17:54:23;;;;;;;2.20;0.90;;;13.00;99.70;;;;;;4895227;29;20179;-84
2022/04/06 17:56:51;;;;;;;2.70;1.20;;;13.00;99.90;;;;;;4882812;29;20148;-84
2022/04/06 17:59:18;;;;;;;3.53;1.13;;;12.90;99.90;;;;;;4881942;29;20048;-85
2022/04/06 18:01:46;;;;;;;2.13;1.10;;;12.90;99.90;;;;;;4895007;29;20045;-84
2022/04/06 18:04:14;;;;;;;2.20;1.02;;;12.90;99.90;;;;;;4892419;29;20148;-83
2022/04/06 18:06:41;;;;;;;3.03;1.20;;;12.90;99.90;;;;;;4898445;29;20479;-83
2022/04/06 18:09:10;;;;;;;2.72;1.08;;;12.90;99.90;;;;;;4893075;29;20410;-83
2022/04/06 18:14:23;;;;;;;2.45;1.10;;;12.80;99.90;;;;;;4882126;29;20204;-84
2022/04/06 18:16:51;;;;;;;2.17;1.00;;;12.80;99.90;;;;;;4892500;29;20065;-85
2022/04/06 18:19:20;;;;;;;2.05;1.00;;;12.80;99.90;;;;;;4887629;29;20052;-87